Sheyenne, North Dakota
Current Conditions -  °F | °C
As of 1:15 PM on Saturday 20 Dec 2014 (Local Time) from KDVL Reporting Station
Overcast Overcast  
Wind Chill: 18°   Ceiling: 200
Heat Index: 25°   Visibility: 0.75mi
Dew Point: 18°   Wind: 6mph
Humidity: 74%   Direction: 160°SSE
Pressure: 29.87"   Gusts: NA
Location:  47.83°N, 99.12°W
Report Text: KDVL 201915Z AUTO 16005KT 3/4SM OVC002 M04/M08 A2987 RMK AO1
Loading
Personal Weather Stations






























Interactive Weather Map New forecast layout! Learn more

10-Day Weather Forecast

Advertisements
Track Severe Weather on mobile